createdAt,value
2019-03-23T00:00:16.126Z,91.80
2019-03-23T00:04:20.030Z,92.20
2019-03-23T00:08:21.907Z,91.70
2019-03-23T00:12:23.851Z,91.80
2019-03-23T00:16:25.744Z,91.70
2019-03-23T00:20:27.643Z,91.90
2019-03-23T00:24:29.535Z,91.90
2019-03-23T00:28:31.430Z,91.80
2019-03-23T00:32:33.340Z,91.80
2019-03-23T00:36:41.503Z,91.80
2019-03-23T00:40:38.942Z,91.90
2019-03-23T00:44:40.841Z,92.30
2019-03-23T00:48:42.745Z,92.00
2019-03-23T00:52:44.650Z,92.00
2019-03-23T00:56:46.547Z,92.00
2019-03-23T01:00:49.256Z,92.30
2019-03-23T01:04:51.144Z,92.20
2019-03-23T01:08:53.039Z,92.30
2019-03-23T01:12:54.965Z,92.40
2019-03-23T01:16:56.859Z,92.40
2019-03-23T01:20:58.762Z,92.30
2019-03-23T01:25:00.656Z,92.40
2019-03-23T01:29:04.499Z,92.60
2019-03-23T01:33:06.473Z,92.60
2019-03-23T01:37:08.350Z,92.50
2019-03-23T01:41:10.255Z,92.90
2019-03-23T01:45:13.653Z,92.60
2019-03-23T01:49:15.555Z,92.50
2019-03-23T01:53:17.447Z,92.50
2019-03-23T01:57:19.627Z,92.40
2019-03-23T02:01:21.506Z,92.40
2019-03-23T02:05:23.523Z,92.60
2019-03-23T02:09:25.417Z,92.60
2019-03-23T02:13:27.312Z,92.50
2019-03-23T02:17:29.206Z,92.60
2019-03-23T02:21:31.105Z,92.40
2019-03-23T02:25:33.009Z,92.50
2019-03-23T02:29:53.869Z,92.80
2019-03-23T02:33:55.947Z,92.80
2019-03-23T02:37:57.847Z,92.90
2019-03-23T02:41:59.793Z,92.90
2019-03-23T02:46:01.762Z,93.20
2019-03-23T02:50:05.904Z,93.00
2019-03-23T02:54:07.777Z,93.40
2019-03-23T02:58:09.690Z,92.60
2019-03-23T03:02:11.629Z,93.00
2019-03-23T03:06:13.773Z,93.10
2019-03-23T03:10:41.658Z,92.90
2019-03-23T03:14:43.643Z,93.30
2019-03-23T03:18:45.616Z,93.00
2019-03-23T03:22:47.577Z,93.10
2019-03-23T03:26:49.831Z,93.10
2019-03-23T03:30:52.933Z,93.10
2019-03-23T03:34:54.857Z,93.20
2019-03-23T03:38:56.858Z,92.80
2019-03-23T03:42:58.810Z,92.90
2019-03-23T03:47:00.746Z,93.30
2019-03-23T03:51:02.692Z,93.40
2019-03-23T03:55:06.337Z,93.10
2019-03-23T03:59:26.694Z,92.60
2019-03-23T04:03:43.598Z,93.10
2019-03-23T04:07:45.855Z,92.80
2019-03-23T04:11:47.752Z,93.20
2019-03-23T04:15:49.656Z,93.30
2019-03-23T04:19:51.803Z,93.40
2019-03-23T04:23:53.698Z,93.40
2019-03-23T04:27:55.614Z,93.80
2019-03-23T04:31:57.501Z,93.70
2019-03-23T04:35:59.400Z,93.40
2019-03-23T04:40:01.505Z,93.50
2019-03-23T04:44:04.453Z,93.40
2019-03-23T04:48:06.346Z,93.20
2019-03-23T04:52:08.244Z,93.10
2019-03-23T04:56:10.146Z,93.50
2019-03-23T05:00:16.620Z,93.40
2019-03-23T05:04:18.523Z,93.10
2019-03-23T05:08:20.417Z,92.90
2019-03-23T05:12:22.320Z,93.40
2019-03-23T05:16:24.260Z,93.80
2019-03-23T05:20:29.451Z,93.80
2019-03-23T05:24:31.376Z,93.70
2019-03-23T05:28:33.254Z,93.60
2019-03-23T05:32:35.164Z,93.40
2019-03-23T05:36:38.369Z,93.60
2019-03-23T05:40:41.331Z,93.50
2019-03-23T05:44:43.428Z,93.70
2019-03-23T05:48:45.316Z,95.00
2019-03-23T05:52:47.226Z,93.80
2019-03-23T05:56:49.182Z,94.10
2019-03-23T06:00:51.065Z,94.10
2019-03-23T06:04:52.970Z,94.10
2019-03-23T06:08:55.592Z,94.20
2019-03-23T06:12:58.502Z,94.00
2019-03-23T06:17:00.456Z,94.20
2019-03-23T06:21:02.337Z,94.50
2019-03-23T06:25:07.110Z,94.70
2019-03-23T06:29:08.982Z,94.80
2019-03-23T06:33:10.913Z,94.80
2019-03-23T06:37:13.774Z,95.20
2019-03-23T06:41:15.678Z,95.20
2019-03-23T06:45:18.538Z,95.50
2019-03-23T06:49:20.420Z,95.20
2019-03-23T06:53:22.328Z,95.60
2019-03-23T06:57:24.237Z,95.20
2019-03-23T07:01:26.163Z,94.90
2019-03-23T07:05:28.160Z,95.40
2019-03-23T07:09:30.053Z,97.10
2019-03-23T07:13:31.962Z,97.70
2019-03-23T07:17:33.963Z,98.70
2019-03-23T07:21:35.877Z,99.00
2019-03-23T07:25:38.231Z,99.40
2019-03-23T07:29:40.137Z,98.90
2019-03-23T07:33:42.037Z,98.40
2019-03-23T07:37:44.014Z,98.10
2019-03-23T07:41:46.999Z,98.00
2019-03-23T07:45:48.919Z,97.70
2019-03-23T07:49:50.851Z,97.30
2019-03-23T07:53:52.771Z,96.90
2019-03-23T07:57:54.688Z,96.60
2019-03-23T08:01:56.599Z,96.30
2019-03-23T08:05:58.553Z,95.60
2019-03-23T08:10:00.516Z,95.20
2019-03-23T08:14:02.376Z,95.10
2019-03-23T08:18:04.418Z,95.10
2019-03-23T08:22:06.409Z,94.90
2019-03-23T08:26:24.826Z,95.30
2019-03-23T08:30:26.699Z,94.60
2019-03-23T08:34:28.807Z,93.30
2019-03-23T08:38:30.707Z,92.60
2019-03-23T08:42:34.908Z,91.80
2019-03-23T08:46:36.237Z,91.80
2019-03-23T08:50:38.248Z,90.10
2019-03-23T08:54:40.143Z,90.10
2019-03-23T08:58:40.360Z,89.50
2019-03-23T09:02:42.351Z,87.30
2019-03-23T09:06:45.347Z,86.20
2019-03-23T09:10:47.467Z,84.90
2019-03-23T09:14:49.379Z,83.40
2019-03-23T09:18:51.305Z,82.00
2019-03-23T09:22:53.277Z,80.50
2019-03-23T09:26:55.207Z,80.60
2019-03-23T09:30:57.116Z,78.20
2019-03-23T09:34:59.042Z,74.70
2019-03-23T09:39:01.614Z,71.10
2019-03-23T09:43:03.891Z,67.70
2019-03-23T09:47:05.891Z,66.10
2019-03-23T09:51:26.534Z,66.20
2019-03-23T09:55:47.750Z,63.20
2019-03-23T09:59:49.674Z,61.50
2019-03-23T10:03:51.652Z,61.40
2019-03-23T10:07:53.585Z,60.40
2019-03-23T10:11:55.581Z,58.50
2019-03-23T10:15:57.508Z,56.00
2019-03-23T10:19:59.587Z,54.80
2019-03-23T10:24:01.809Z,54.90
2019-03-23T10:28:04.892Z,51.50
2019-03-23T10:32:06.895Z,51.00
2019-03-23T10:36:18.387Z,49.20
2019-03-23T10:40:20.326Z,46.30
2019-03-23T10:44:22.454Z,48.00
2019-03-23T10:48:24.358Z,44.60
2019-03-23T10:52:26.283Z,38.80
2019-03-23T10:56:28.206Z,39.00
2019-03-23T11:00:30.123Z,38.50
2019-03-23T11:04:32.244Z,40.20
2019-03-23T11:08:34.155Z,39.50
2019-03-23T11:12:37.161Z,37.70
2019-03-23T11:16:39.155Z,37.40
2019-03-23T11:20:41.071Z,36.00
2019-03-23T11:24:42.991Z,33.80
2019-03-23T11:32:57.077Z,32.00
2019-03-23T11:36:59.049Z,33.40
2019-03-23T11:41:01.484Z,35.20
2019-03-23T11:45:04.039Z,32.90
2019-03-23T11:49:05.969Z,33.80
2019-03-23T11:53:07.894Z,33.60
2019-03-23T11:57:09.818Z,32.60
2019-03-23T12:01:11.745Z,31.80
2019-03-23T12:05:14.098Z,32.40
2019-03-23T12:09:16.064Z,34.60
2019-03-23T12:13:17.994Z,35.10
2019-03-23T12:17:20.026Z,35.40
2019-03-23T12:21:21.979Z,34.00
2019-03-23T12:25:23.922Z,32.90
2019-03-23T12:29:25.828Z,32.90
2019-03-23T12:33:27.804Z,30.40
2019-03-23T12:37:29.732Z,32.60
2019-03-23T12:41:31.653Z,32.60
2019-03-23T12:45:33.609Z,30.60
2019-03-23T12:49:35.530Z,31.70
2019-03-23T12:53:37.458Z,28.90
2019-03-23T12:57:40.485Z,29.40
2019-03-23T13:01:42.447Z,29.30
2019-03-23T13:05:44.446Z,28.20
2019-03-23T13:09:46.362Z,27.30
2019-03-23T13:13:48.273Z,28.40
2019-03-23T13:17:50.206Z,27.10
2019-03-23T13:21:52.116Z,28.60
2019-03-23T13:25:54.044Z,28.50
2019-03-23T13:30:05.628Z,27.90
2019-03-23T13:34:07.533Z,27.60
2019-03-23T13:38:09.525Z,28.20
2019-03-23T13:42:11.492Z,26.50
2019-03-23T13:46:13.423Z,27.20
2019-03-23T13:50:19.931Z,28.30
2019-03-23T13:54:21.852Z,28.00
2019-03-23T13:58:23.779Z,26.90
2019-03-23T14:02:26.416Z,27.70
2019-03-23T14:06:28.335Z,27.00
2019-03-23T14:10:30.259Z,25.80
2019-03-23T14:14:32.206Z,24.30
2019-03-23T14:18:35.771Z,25.00
2019-03-23T14:22:37.747Z,26.60
2019-03-23T14:26:40.383Z,26.00
2019-03-23T14:30:42.350Z,24.10
2019-03-23T14:34:44.280Z,25.70
2019-03-23T14:38:46.206Z,24.50
2019-03-23T14:42:48.160Z,24.00
2019-03-23T14:46:50.070Z,24.70
2019-03-23T14:50:51.999Z,24.00
2019-03-23T14:54:54.007Z,24.60
2019-03-23T14:58:55.997Z,23.50
2019-03-23T15:02:57.919Z,24.40
2019-03-23T15:06:59.842Z,25.70
2019-03-23T15:11:01.767Z,25.90
2019-03-23T15:15:04.355Z,25.80
2019-03-23T15:19:24.696Z,26.20
2019-03-23T15:23:45.479Z,26.70
2019-03-23T15:27:57.799Z,26.40
2019-03-23T15:31:59.756Z,27.20
2019-03-23T15:36:03.533Z,26.90
2019-03-23T15:40:08.171Z,27.50
2019-03-23T15:44:10.085Z,28.10
2019-03-23T15:48:12.012Z,28.40
2019-03-23T15:52:13.937Z,29.00
2019-03-23T15:56:15.855Z,29.60
2019-03-23T16:00:20.416Z,29.30
2019-03-23T16:04:22.429Z,30.00
2019-03-23T16:08:24.345Z,30.20
2019-03-23T16:12:34.550Z,31.20
2019-03-23T16:16:29.906Z,32.00
2019-03-23T16:20:31.838Z,33.40
2019-03-23T16:24:33.761Z,33.10
2019-03-23T16:28:35.666Z,33.80
2019-03-23T16:32:37.871Z,34.00
2019-03-23T16:36:40.675Z,34.40
2019-03-23T16:40:42.591Z,34.20
2019-03-23T16:44:44.516Z,36.40
2019-03-23T16:48:46.425Z,38.40
2019-03-23T16:52:48.366Z,40.30
2019-03-23T16:56:50.324Z,42.70
2019-03-23T17:00:52.249Z,44.30
2019-03-23T17:04:54.175Z,45.90
2019-03-23T17:08:56.090Z,46.60
2019-03-23T17:12:58.141Z,47.00
2019-03-23T17:17:00.390Z,48.70
2019-03-23T17:21:02.414Z,50.00
2019-03-23T17:25:06.267Z,51.40
2019-03-23T17:29:08.198Z,51.80
2019-03-23T17:33:10.116Z,53.00
2019-03-23T17:37:12.037Z,53.80
2019-03-23T17:41:15.034Z,54.70
2019-03-23T17:45:16.943Z,55.00
2019-03-23T17:49:18.970Z,55.80
2019-03-23T17:53:20.938Z,56.10
2019-03-23T17:57:23.221Z,56.90
2019-03-23T18:01:25.148Z,58.00
2019-03-23T18:05:27.061Z,58.60
2019-03-23T18:09:28.994Z,59.50
2019-03-23T18:13:30.898Z,60.00
2019-03-23T18:17:33.210Z,60.20
2019-03-23T18:21:35.111Z,62.00
2019-03-23T18:25:37.263Z,62.10
2019-03-23T18:29:40.431Z,62.70
2019-03-23T18:33:42.354Z,63.20
2019-03-23T18:37:44.288Z,63.80
2019-03-23T18:41:46.215Z,64.80
2019-03-23T18:45:48.115Z,65.20
2019-03-23T18:49:50.043Z,66.00
2019-03-23T18:53:52.161Z,66.90
2019-03-23T18:57:54.072Z,67.50
2019-03-23T19:01:55.995Z,68.20
2019-03-23T19:05:58.010Z,68.20
2019-03-23T19:10:00.334Z,68.70
2019-03-23T19:14:02.243Z,69.60
2019-03-23T19:18:04.782Z,70.20
2019-03-23T19:22:06.683Z,71.20
2019-03-23T19:26:08.613Z,71.30
2019-03-23T19:30:11.805Z,71.20
2019-03-23T19:34:13.716Z,72.10
2019-03-23T19:38:15.622Z,73.00
2019-03-23T19:42:18.610Z,72.80
2019-03-23T19:46:20.571Z,73.90
2019-03-23T19:50:22.459Z,74.70
2019-03-23T19:54:24.369Z,75.20
2019-03-23T19:58:26.327Z,76.40
2019-03-23T20:02:28.325Z,77.70
2019-03-23T20:06:30.235Z,77.20
2019-03-23T20:10:32.165Z,77.70
2019-03-23T20:14:34.056Z,78.50
2019-03-23T20:18:35.975Z,79.70
2019-03-23T20:22:37.868Z,80.90
2019-03-23T20:26:40.745Z,81.00
2019-03-23T20:30:42.859Z,80.50
2019-03-23T20:34:44.755Z,83.80
2019-03-23T20:38:46.931Z,83.70
2019-03-23T20:42:48.847Z,83.70
2019-03-23T20:46:51.726Z,84.00
2019-03-23T20:50:53.681Z,85.20
2019-03-23T20:54:55.620Z,85.00
2019-03-23T20:58:57.517Z,85.20
2019-03-23T21:02:59.434Z,85.40
2019-03-23T21:07:01.644Z,86.10
2019-03-23T21:11:03.721Z,86.50
2019-03-23T21:15:06.928Z,86.40
2019-03-23T21:19:08.842Z,87.00
2019-03-23T21:23:10.754Z,88.50
2019-03-23T21:27:12.660Z,91.00
2019-03-23T21:31:14.578Z,88.90
2019-03-23T21:35:16.477Z,89.40
2019-03-23T21:39:18.385Z,89.80
2019-03-23T21:43:20.303Z,92.30
2019-03-23T21:47:22.391Z,92.20
2019-03-23T21:51:24.301Z,91.40
2019-03-23T21:55:26.223Z,91.50
2019-03-23T21:59:28.129Z,91.90
2019-03-23T22:03:30.041Z,91.30
2019-03-23T22:07:31.960Z,91.20
2019-03-23T22:11:35.042Z,91.10
2019-03-23T22:15:36.937Z,91.40
2019-03-23T22:19:38.848Z,91.20
2019-03-23T22:23:40.752Z,91.20
2019-03-23T22:27:42.646Z,92.00
2019-03-23T22:31:44.606Z,91.80
2019-03-23T22:35:46.578Z,91.70
2019-03-23T22:39:48.563Z,91.70
2019-03-23T22:43:50.478Z,93.30
2019-03-23T22:47:52.383Z,92.00
2019-03-23T22:51:54.339Z,91.60
2019-03-23T22:55:56.230Z,91.90
2019-03-23T22:59:58.137Z,91.60
2019-03-23T23:04:00.085Z,91.80
2019-03-23T23:08:02.973Z,91.60
2019-03-23T23:12:04.875Z,91.90
2019-03-23T23:16:06.780Z,92.20
2019-03-23T23:20:17.358Z,92.10
2019-03-23T23:24:20.323Z,92.20
2019-03-23T23:28:22.218Z,92.00
2019-03-23T23:32:24.142Z,92.50
2019-03-23T23:36:27.106Z,92.70
2019-03-23T23:40:29.113Z,92.40
2019-03-23T23:44:31.087Z,92.50
2019-03-23T23:48:33.069Z,92.30
2019-03-23T23:52:34.988Z,92.20
2019-03-23T23:56:36.943Z,92.40
